This is the latest recevied weather packets stored in our database for station/object I3LPO-3. If no packets are shown the sender has not sent any weather packets the latest 10 day(s).
| Time | Temp. | Humidity | Pressure | Rain* | Wind** | Luminosity | Snow |
|---|---|---|---|---|---|---|---|
| 1777798628 | 25° C | 38% | 1019.8 hPa | - | - | - | - |
| 1777797424 | 24.44° C | 38% | 1020 hPa | - | - | - | - |
| 1777796221 | 23.89° C | 38% | 1020.1 hPa | - | - | - | - |
| 1777795017 | 22.78° C | 37% | 1020.3 hPa | - | - | - | - |
| 1777793814 | 22.22° C | 37% | 1020.4 hPa | - | - | - | - |
| 1777792610 | 21.11° C | 37% | 1020.6 hPa | - | - | - | - |
| 1777791407 | 18.89° C | 36% | 1020.8 hPa | - | - | - | - |
| 1777790203 | 17.22° C | 36% | 1021 hPa | - | - | - | - |
| 1777788999 | 14.44° C | 36% | 1021.3 hPa | - | - | - | - |
| 1777787796 | 13.33° C | 36% | 1021.5 hPa | - | - | - | - |
| 1777786592 | 11.67° C | 37% | 1021.7 hPa | - | - | - | - |
| 1777785389 | 11.11° C | 37% | 1021.7 hPa | - | - | - | - |
| 1777784185 | 10.56° C | 37% | 1021.6 hPa | - | - | - | - |
| 1777782982 | 10.56° C | 37% | 1021.6 hPa | - | - | - | - |
| 1777781778 | 10.56° C | 37% | 1021.6 hPa | - | - | - | - |
| 1777780574 | 11.11° C | 37% | 1021.6 hPa | - | - | - | - |
| 1777779371 | 11.11° C | 37% | 1021.6 hPa | - | - | - | - |
| 1777778167 | 11.11° C | 37% | 1021.6 hPa | - | - | - | - |
| 1777776964 | 11.11° C | 37% | 1021.6 hPa | - | - | - | - |
| 1777775760 | 11.67° C | 37% | 1021.7 hPa | - | - | - | - |
| 1777774556 | 11.67° C | 37% | 1021.6 hPa | - | - | - | - |
| 1777773353 | 12.22° C | 37% | 1021.7 hPa | - | - | - | - |
| 1777772149 | 12.22° C | 37% | 1021.7 hPa | - | - | - | - |
| 1777770946 | 12.22° C | 37% | 1021.7 hPa | - | - | - | - |
| 1777769742 | 12.78° C | 37% | 1021.8 hPa | - | - | - | - |
* Rain since midnight (hover to see other rain measurements)
** Current wind speed in m/s (hover to see current wind gust speed)